createdAt,value
2022-08-02T00:00:18.344Z,14.80
2022-08-02T00:02:46.531Z,14.80
2022-08-02T00:05:13.894Z,14.90
2022-08-02T00:07:41.570Z,14.90
2022-08-02T00:10:10.575Z,14.90
2022-08-02T00:12:38.266Z,14.90
2022-08-02T00:15:06.674Z,15.00
2022-08-02T00:17:33.404Z,15.00
2022-08-02T00:20:00.225Z,15.10
2022-08-02T00:22:26.943Z,15.10
2022-08-02T00:24:53.983Z,15.10
2022-08-02T00:27:20.677Z,15.10
2022-08-02T00:29:52.971Z,15.10
2022-08-02T00:32:20.568Z,15.10
2022-08-02T00:34:47.312Z,15.10
2022-08-02T00:37:14.658Z,15.10
2022-08-02T00:39:44.880Z,15.20
2022-08-02T00:42:14.792Z,15.20
2022-08-02T00:44:42.110Z,15.20
2022-08-02T00:47:08.991Z,15.20
2022-08-02T00:49:35.797Z,15.10
2022-08-02T00:52:02.782Z,15.10
2022-08-02T00:54:29.495Z,15.00
2022-08-02T00:56:56.244Z,14.90
2022-08-02T00:59:22.991Z,14.90
2022-08-02T01:01:57.339Z,14.80
2022-08-02T01:04:31.197Z,14.80
2022-08-02T01:07:00.702Z,14.70
2022-08-02T01:09:27.928Z,14.60
2022-08-02T01:11:54.763Z,14.60
2022-08-02T01:14:24.348Z,14.50
2022-08-02T01:16:58.393Z,14.50
2022-08-02T01:19:48.564Z,14.50
2022-08-02T01:22:59.297Z,14.40
2022-08-02T01:25:43.076Z,14.40
2022-08-02T01:29:00.083Z,14.30
2022-08-02T01:31:44.476Z,14.20
2022-08-02T01:34:23.128Z,14.20
2022-08-02T01:37:20.243Z,14.10
2022-08-02T01:39:51.929Z,14.00
2022-08-02T01:42:21.436Z,14.00
2022-08-02T01:44:50.914Z,14.00
2022-08-02T01:47:26.369Z,14.00
2022-08-02T01:49:57.506Z,14.00
2022-08-02T01:52:27.195Z,14.10
2022-08-02T01:55:18.839Z,14.10
2022-08-02T01:58:05.011Z,14.20
2022-08-02T02:00:36.690Z,14.30
2022-08-02T02:03:06.699Z,14.30
2022-08-02T02:05:49.986Z,14.30
2022-08-02T02:08:27.008Z,14.30
2022-08-02T02:10:56.687Z,14.20
2022-08-02T02:13:28.769Z,14.20
2022-08-02T02:16:04.165Z,14.10
2022-08-02T02:18:32.965Z,14.00
2022-08-02T02:20:59.813Z,13.90
2022-08-02T02:23:26.536Z,13.80
2022-08-02T02:26:03.989Z,13.70
2022-08-02T02:28:33.209Z,13.70
2022-08-02T02:31:17.968Z,13.70
2022-08-02T02:33:57.619Z,13.60
2022-08-02T02:36:25.914Z,13.60
2022-08-02T02:38:54.354Z,13.60
2022-08-02T02:41:23.731Z,13.60
2022-08-02T02:43:53.030Z,13.70
2022-08-02T02:46:21.618Z,13.70
2022-08-02T02:48:51.519Z,13.70
2022-08-02T02:51:19.874Z,13.70
2022-08-02T02:54:32.849Z,13.70
2022-08-02T02:56:38.577Z,13.70
2022-08-02T02:59:07.402Z,13.70
2022-08-02T03:01:55.683Z,13.70
2022-08-02T03:04:22.548Z,13.60
2022-08-02T03:06:49.387Z,13.60
2022-08-02T03:09:16.212Z,13.50
2022-08-02T03:11:43.369Z,13.50
2022-08-02T03:14:12.417Z,13.50
2022-08-02T03:16:44.199Z,13.50
2022-08-02T03:19:11.033Z,13.50
2022-08-02T03:21:38.351Z,13.50
2022-08-02T03:24:05.746Z,13.40
2022-08-02T03:26:32.654Z,13.40
2022-08-02T03:28:59.424Z,13.50
2022-08-02T03:31:28.173Z,13.50
2022-08-02T03:34:01.122Z,13.50
2022-08-02T03:36:31.532Z,13.60
2022-08-02T03:38:59.661Z,13.60
2022-08-02T03:41:26.848Z,13.70
2022-08-02T03:43:54.714Z,13.70
2022-08-02T03:46:24.041Z,13.80
2022-08-02T03:48:52.397Z,13.80
2022-08-02T03:51:20.591Z,13.90
2022-08-02T03:53:49.069Z,13.90
2022-08-02T03:56:16.765Z,13.90
2022-08-02T03:58:48.637Z,13.80
2022-08-02T04:01:16.326Z,13.80
2022-08-02T04:03:43.271Z,13.80
2022-08-02T04:06:10.202Z,13.80
2022-08-02T04:08:38.768Z,13.80
2022-08-02T04:11:25.348Z,13.80
2022-08-02T04:13:56.498Z,13.70
2022-08-02T04:16:42.612Z,13.70
2022-08-02T04:19:14.859Z,13.60
2022-08-02T04:21:53.251Z,13.60
2022-08-02T04:24:27.670Z,13.60
2022-08-02T04:26:58.020Z,13.60
2022-08-02T04:29:35.213Z,13.60
2022-08-02T04:32:03.381Z,13.60
2022-08-02T04:34:30.791Z,13.60
2022-08-02T04:36:58.803Z,13.60
2022-08-02T04:39:25.890Z,13.60
2022-08-02T04:41:57.412Z,13.70
2022-08-02T04:44:25.084Z,13.70
2022-08-02T04:46:52.282Z,13.80
2022-08-02T04:49:19.103Z,13.80
2022-08-02T04:51:45.844Z,13.90
2022-08-02T04:54:13.383Z,14.00
2022-08-02T04:56:40.745Z,14.20
2022-08-02T04:59:07.782Z,14.30
2022-08-02T05:01:35.733Z,14.40
2022-08-02T05:04:03.340Z,14.50
2022-08-02T05:06:30.157Z,14.60
2022-08-02T05:08:56.898Z,14.80
2022-08-02T05:11:30.003Z,14.90
2022-08-02T05:14:01.673Z,15.10
2022-08-02T05:16:30.995Z,15.20
2022-08-02T05:18:59.999Z,15.40
2022-08-02T05:21:27.027Z,15.60
2022-08-02T05:23:53.775Z,15.70
2022-08-02T05:26:20.650Z,15.90
2022-08-02T05:28:47.509Z,16.00
2022-08-02T05:31:14.209Z,16.10
2022-08-02T05:33:41.036Z,16.20
2022-08-02T05:36:09.445Z,16.30
2022-08-02T05:38:37.579Z,16.40
2022-08-02T05:41:05.941Z,16.50
2022-08-02T05:43:32.901Z,16.60
2022-08-02T05:46:00.162Z,16.70
2022-08-02T05:48:31.522Z,16.70
2022-08-02T05:51:36.698Z,16.80
2022-08-02T05:54:17.420Z,16.80
2022-08-02T05:57:12.972Z,16.80
2022-08-02T05:59:59.930Z,16.90
2022-08-02T06:02:39.360Z,16.90
2022-08-02T06:05:12.649Z,17.00
2022-08-02T06:07:42.366Z,17.00
2022-08-02T06:10:10.745Z,17.20
2022-08-02T06:12:46.927Z,17.30
2022-08-02T06:15:15.944Z,17.40
2022-08-02T06:17:52.965Z,17.60
2022-08-02T06:20:20.838Z,17.80
2022-08-02T06:22:48.494Z,18.00
2022-08-02T06:25:50.752Z,18.10
2022-08-02T06:28:11.255Z,18.30
2022-08-02T06:30:38.962Z,18.50
2022-08-02T06:33:05.698Z,18.70
2022-08-02T06:35:51.918Z,18.80
2022-08-02T06:38:25.474Z,19.00
2022-08-02T06:41:02.025Z,19.20
2022-08-02T06:43:53.578Z,19.30
2022-08-02T06:47:01.371Z,19.40
2022-08-02T06:49:08.122Z,19.60
2022-08-02T06:51:35.086Z,19.70
2022-08-02T06:54:01.849Z,19.80
2022-08-02T06:56:28.652Z,19.90
2022-08-02T06:58:55.373Z,19.90
2022-08-02T07:01:22.271Z,20.00
2022-08-02T07:03:49.096Z,20.00
2022-08-02T07:06:15.843Z,19.90
2022-08-02T07:08:54.822Z,20.00
2022-08-02T07:11:29.617Z,20.10
2022-08-02T07:13:56.391Z,20.20
2022-08-02T07:16:23.130Z,20.40
2022-08-02T07:18:49.836Z,20.60
2022-08-02T07:21:16.547Z,20.70
2022-08-02T07:24:03.509Z,20.90
2022-08-02T07:26:30.321Z,21.10
2022-08-02T07:28:58.663Z,21.30
2022-08-02T07:31:25.374Z,21.50
2022-08-02T07:33:52.871Z,21.70
2022-08-02T07:36:22.605Z,21.80
2022-08-02T07:38:50.069Z,22.00
2022-08-02T07:41:17.437Z,22.10
2022-08-02T07:43:44.166Z,22.30
2022-08-02T07:46:10.875Z,22.40
2022-08-02T07:48:37.674Z,22.60
2022-08-02T07:51:04.446Z,22.80
2022-08-02T07:53:50.591Z,23.10
2022-08-02T07:56:18.211Z,23.20
2022-08-02T07:58:45.104Z,23.30
2022-08-02T08:01:11.998Z,23.40
2022-08-02T08:03:38.785Z,23.40
2022-08-02T08:06:05.576Z,23.40
2022-08-02T08:08:34.235Z,23.50
2022-08-02T08:11:01.086Z,23.60
2022-08-02T08:13:27.782Z,23.70
2022-08-02T08:15:54.739Z,23.80
2022-08-02T08:18:22.634Z,23.80
2022-08-02T08:20:49.668Z,24.00
2022-08-02T08:23:16.369Z,24.00
2022-08-02T08:25:43.073Z,23.80
2022-08-02T08:28:09.943Z,23.80
2022-08-02T08:30:36.781Z,23.80
2022-08-02T08:33:04.522Z,23.80
2022-08-02T08:35:31.328Z,23.80
2022-08-02T08:37:58.021Z,23.90
2022-08-02T08:40:25.982Z,23.90
2022-08-02T08:42:52.838Z,23.90
2022-08-02T08:45:19.802Z,24.00
2022-08-02T08:47:53.177Z,24.10
2022-08-02T08:50:25.791Z,24.30
2022-08-02T08:53:07.600Z,24.30
2022-08-02T08:55:36.078Z,24.60
2022-08-02T08:58:04.666Z,24.80
2022-08-02T09:00:36.032Z,25.20
2022-08-02T09:03:05.467Z,25.60
2022-08-02T09:05:35.082Z,26.00
2022-08-02T09:08:01.993Z,26.30
2022-08-02T09:10:39.613Z,26.50
2022-08-02T09:13:37.651Z,26.80
2022-08-02T09:16:11.327Z,27.10
2022-08-02T09:18:44.070Z,27.30
2022-08-02T09:21:11.352Z,27.40
2022-08-02T09:23:49.019Z,27.40
2022-08-02T09:26:21.463Z,27.30
2022-08-02T09:28:52.691Z,27.30
2022-08-02T09:31:22.197Z,27.30
2022-08-02T09:33:57.246Z,27.30
2022-08-02T09:36:25.274Z,27.50
2022-08-02T09:38:58.254Z,27.80
2022-08-02T09:41:27.855Z,28.00
2022-08-02T09:44:05.149Z,28.30
2022-08-02T09:46:41.996Z,28.40
2022-08-02T09:49:13.511Z,28.30
2022-08-02T09:51:45.080Z,28.30
2022-08-02T09:54:17.285Z,28.30
2022-08-02T09:56:57.816Z,28.10
2022-08-02T09:59:29.902Z,28.10
2022-08-02T10:02:01.898Z,27.80
2022-08-02T10:04:52.984Z,27.60
2022-08-02T10:07:22.752Z,27.40
2022-08-02T10:09:50.476Z,27.30
2022-08-02T10:12:17.356Z,27.10
2022-08-02T10:14:45.391Z,27.00
2022-08-02T10:17:13.125Z,27.20
2022-08-02T10:20:01.949Z,27.30
2022-08-02T10:22:30.716Z,27.50
2022-08-02T10:24:57.510Z,27.50
2022-08-02T10:27:25.792Z,27.40
2022-08-02T10:30:04.914Z,27.20
2022-08-02T10:32:37.392Z,27.10
2022-08-02T10:35:19.980Z,27.00
2022-08-02T10:38:04.017Z,26.90
2022-08-02T10:40:44.305Z,27.00
2022-08-02T10:43:11.300Z,27.20
2022-08-02T10:45:38.177Z,27.40
2022-08-02T10:48:11.667Z,27.70
2022-08-02T10:50:48.158Z,27.90
2022-08-02T10:53:25.583Z,28.10
2022-08-02T10:55:54.265Z,28.10
2022-08-02T10:58:26.108Z,28.20
2022-08-02T11:00:53.668Z,28.20
2022-08-02T11:03:29.709Z,28.10
2022-08-02T11:06:25.112Z,28.00
2022-08-02T11:09:34.111Z,28.00
2022-08-02T11:12:03.482Z,27.90
2022-08-02T11:14:31.148Z,27.90
2022-08-02T11:16:57.820Z,27.80
2022-08-02T11:19:25.930Z,27.90
2022-08-02T11:22:10.756Z,27.90
2022-08-02T11:24:39.888Z,28.10
2022-08-02T11:27:09.490Z,28.30
2022-08-02T11:29:42.117Z,28.50
2022-08-02T11:32:18.228Z,28.70
2022-08-02T11:34:49.087Z,28.90
2022-08-02T11:37:36.565Z,29.20
2022-08-02T11:40:23.577Z,29.30
2022-08-02T11:42:59.230Z,29.30
2022-08-02T11:45:29.612Z,29.20
2022-08-02T11:47:57.244Z,29.20
2022-08-02T11:50:30.118Z,29.20
2022-08-02T11:52:57.806Z,29.20
2022-08-02T11:55:29.204Z,29.30
2022-08-02T11:58:04.346Z,29.30
2022-08-02T12:00:32.113Z,29.20
2022-08-02T12:02:59.135Z,29.00
2022-08-02T12:05:44.712Z,28.70
2022-08-02T12:08:13.596Z,28.50
2022-08-02T12:10:48.109Z,28.30
2022-08-02T12:13:15.080Z,28.20
2022-08-02T12:15:47.219Z,28.10
2022-08-02T12:18:41.353Z,28.10
2022-08-02T12:21:25.970Z,28.00
2022-08-02T12:23:59.386Z,27.90
2022-08-02T12:26:29.061Z,27.90
2022-08-02T12:28:57.806Z,27.90
2022-08-02T12:31:57.040Z,27.90
2022-08-02T12:34:31.130Z,27.90
2022-08-02T12:37:10.149Z,28.00
2022-08-02T12:39:43.135Z,28.40
2022-08-02T12:42:12.158Z,28.80
2022-08-02T12:44:54.281Z,29.30
2022-08-02T12:47:21.946Z,29.50
2022-08-02T12:50:16.965Z,29.60
2022-08-02T12:52:46.962Z,29.90
2022-08-02T12:56:02.358Z,30.20
2022-08-02T12:58:13.372Z,30.30
2022-08-02T13:00:40.502Z,29.70
2022-08-02T13:03:11.623Z,29.10
2022-08-02T13:05:56.944Z,28.80
2022-08-02T13:08:26.028Z,28.30
2022-08-02T13:10:52.816Z,28.10
2022-08-02T13:13:19.513Z,28.10
2022-08-02T13:15:50.118Z,28.00
2022-08-02T13:18:18.374Z,28.10
2022-08-02T13:20:45.754Z,28.20
2022-08-02T13:23:20.963Z,28.30
2022-08-02T13:25:52.722Z,28.40
2022-08-02T13:28:20.480Z,28.60
2022-08-02T13:30:48.025Z,28.80
2022-08-02T13:33:15.294Z,29.00
2022-08-02T13:35:43.516Z,29.20
2022-08-02T13:38:10.751Z,29.30
2022-08-02T13:41:04.818Z,29.20
2022-08-02T13:43:54.246Z,29.00
2022-08-02T13:46:28.955Z,28.90
2022-08-02T13:48:56.893Z,29.00
2022-08-02T13:51:23.889Z,29.10
2022-08-02T13:53:50.579Z,29.20
2022-08-02T13:56:17.328Z,29.20
2022-08-02T13:58:44.100Z,29.20
2022-08-02T14:01:10.930Z,29.40
2022-08-02T14:04:07.602Z,29.50
2022-08-02T14:06:24.431Z,29.60
2022-08-02T14:08:51.986Z,29.70
2022-08-02T14:11:18.957Z,29.70
2022-08-02T14:13:45.762Z,29.70
2022-08-02T14:16:12.569Z,29.80
2022-08-02T14:18:39.398Z,30.00
2022-08-02T14:21:06.129Z,30.30
2022-08-02T14:23:49.882Z,30.50
2022-08-02T14:26:26.893Z,30.60
2022-08-02T14:28:54.874Z,30.60
2022-08-02T14:31:21.693Z,30.50
2022-08-02T14:33:48.448Z,30.50
2022-08-02T14:36:15.178Z,30.50
2022-08-02T14:38:54.042Z,30.80
2022-08-02T14:41:20.819Z,30.90
2022-08-02T14:44:05.996Z,30.60
2022-08-02T14:46:37.743Z,30.50
2022-08-02T14:49:07.516Z,30.40
2022-08-02T14:51:36.906Z,30.30
2022-08-02T14:54:11.710Z,30.50
2022-08-02T14:56:38.948Z,31.90
2022-08-02T14:59:06.071Z,33.90
2022-08-02T15:01:33.098Z,35.60
2022-08-02T15:04:00.159Z,36.70
2022-08-02T15:06:32.873Z,36.80
2022-08-02T15:09:00.360Z,37.00
2022-08-02T15:11:27.225Z,37.30
2022-08-02T15:13:53.992Z,37.90
2022-08-02T15:16:37.125Z,38.20
2022-08-02T15:19:11.581Z,38.70
2022-08-02T15:21:41.938Z,39.30
2022-08-02T15:24:19.233Z,39.70
2022-08-02T15:26:45.997Z,39.90
2022-08-02T15:29:13.004Z,40.40
2022-08-02T15:31:41.777Z,40.80
2022-08-02T15:34:08.867Z,40.40
2022-08-02T15:36:35.616Z,40.00
2022-08-02T15:39:02.633Z,39.30
2022-08-02T15:41:29.361Z,38.80
2022-08-02T15:44:00.794Z,39.20
2022-08-02T15:46:32.147Z,38.40
2022-08-02T15:48:59.848Z,38.10
2022-08-02T15:51:27.053Z,37.10
2022-08-02T15:53:53.873Z,36.10
2022-08-02T15:56:24.100Z,37.20
2022-08-02T15:58:57.057Z,38.80
2022-08-02T16:01:37.186Z,39.70
2022-08-02T16:04:06.818Z,40.80
2022-08-02T16:06:34.482Z,41.40
2022-08-02T16:09:01.649Z,42.90
2022-08-02T16:11:28.435Z,43.90
2022-08-02T16:13:55.556Z,43.90
2022-08-02T16:16:40.676Z,43.50
2022-08-02T16:19:47.327Z,43.60
2022-08-02T16:21:54.886Z,44.00
2022-08-02T16:24:21.667Z,44.50
2022-08-02T16:26:48.576Z,44.30
2022-08-02T16:29:18.949Z,44.60
2022-08-02T16:31:49.276Z,44.50
2022-08-02T16:34:17.065Z,44.10
2022-08-02T16:36:44.092Z,43.80
2022-08-02T16:39:10.931Z,43.90
2022-08-02T16:41:51.337Z,43.70
2022-08-02T16:44:29.589Z,43.30
2022-08-02T16:47:02.091Z,42.80
2022-08-02T16:50:05.902Z,42.90
2022-08-02T16:52:16.742Z,42.70
2022-08-02T16:54:46.337Z,41.50
2022-08-02T16:57:16.653Z,42.40
2022-08-02T16:59:57.448Z,43.00
2022-08-02T17:02:28.512Z,43.40
2022-08-02T17:04:55.940Z,43.60
2022-08-02T17:08:06.162Z,43.60
2022-08-02T17:10:10.535Z,43.70
2022-08-02T17:12:38.769Z,43.60
2022-08-02T17:16:01.618Z,43.60
2022-08-02T17:17:54.134Z,43.60
2022-08-02T17:20:24.322Z,43.20
2022-08-02T17:22:51.770Z,43.00
2022-08-02T17:25:19.585Z,42.80
2022-08-02T17:27:55.726Z,42.50
2022-08-02T17:30:26.584Z,42.50
2022-08-02T17:32:54.282Z,42.40
2022-08-02T17:35:24.592Z,42.10
2022-08-02T17:37:54.796Z,42.50
2022-08-02T17:40:26.948Z,42.40
2022-08-02T17:42:55.884Z,42.40
2022-08-02T17:45:25.404Z,42.10
2022-08-02T17:48:04.360Z,41.70
2022-08-02T17:50:35.046Z,41.50
2022-08-02T17:53:03.232Z,41.70
2022-08-02T17:55:31.257Z,42.00
2022-08-02T17:58:00.901Z,41.90
2022-08-02T18:00:35.176Z,41.70
2022-08-02T18:03:05.823Z,41.60
2022-08-02T18:05:39.988Z,41.10
2022-08-02T18:08:08.828Z,40.60
2022-08-02T18:10:35.790Z,40.50
2022-08-02T18:15:57.197Z,39.90
2022-08-02T18:18:30.268Z,39.20
2022-08-02T18:20:58.651Z,38.60
2022-08-02T18:23:44.071Z,38.20
2022-08-02T18:26:15.637Z,38.20
2022-08-02T18:28:42.329Z,38.20
2022-08-02T18:31:22.593Z,38.20
2022-08-02T18:34:01.549Z,37.80
2022-08-02T18:36:29.502Z,37.50
2022-08-02T18:38:57.165Z,36.70
2022-08-02T18:41:24.783Z,35.50
2022-08-02T18:43:51.572Z,34.30
2022-08-02T18:46:19.981Z,33.50
2022-08-02T18:48:48.113Z,33.10
2022-08-02T18:51:16.221Z,32.70
2022-08-02T18:53:46.666Z,32.40
2022-08-02T18:56:20.295Z,31.80
2022-08-02T18:58:51.879Z,31.40
2022-08-02T19:01:31.420Z,30.90
2022-08-02T19:04:00.096Z,30.20
2022-08-02T19:06:27.608Z,29.00
2022-08-02T19:09:05.760Z,27.60
2022-08-02T19:11:40.871Z,26.40
2022-08-02T19:14:08.273Z,25.50
2022-08-02T19:16:36.850Z,24.80
2022-08-02T19:19:08.177Z,24.30
2022-08-02T19:22:17.910Z,24.00
2022-08-02T19:24:22.086Z,23.60
2022-08-02T19:26:52.571Z,23.30
2022-08-02T19:29:25.034Z,23.00
2022-08-02T19:32:40.042Z,22.80
2022-08-02T19:34:58.468Z,22.60
2022-08-02T19:37:25.192Z,22.40
2022-08-02T19:40:07.973Z,22.30
2022-08-02T19:44:21.680Z,22.20
2022-08-02T19:45:49.022Z,22.10
2022-08-02T19:48:18.071Z,22.10
2022-08-02T19:50:56.070Z,22.00
2022-08-02T19:53:28.951Z,21.90
2022-08-02T19:56:00.157Z,21.80
2022-08-02T19:58:30.375Z,21.70
2022-08-02T20:00:57.646Z,21.60
2022-08-02T20:03:51.127Z,21.50
2022-08-02T20:06:12.287Z,21.40
2022-08-02T20:08:40.060Z,21.30
2022-08-02T20:11:19.603Z,21.20
2022-08-02T20:13:48.825Z,21.10
2022-08-02T20:16:27.158Z,21.00
2022-08-02T20:18:55.687Z,20.90
2022-08-02T20:21:34.228Z,20.90
2022-08-02T20:24:04.240Z,20.80
2022-08-02T20:26:31.635Z,20.70
2022-08-02T20:29:02.478Z,20.60
2022-08-02T20:31:29.830Z,20.50
2022-08-02T20:33:57.071Z,20.50
2022-08-02T20:36:27.768Z,20.40
2022-08-02T20:38:55.410Z,20.40
2022-08-02T20:41:36.758Z,20.30
2022-08-02T20:44:15.499Z,20.30
2022-08-02T20:46:43.866Z,20.20
2022-08-02T20:49:20.065Z,20.20
2022-08-02T20:51:52.009Z,20.20
2022-08-02T20:57:07.343Z,20.10
2022-08-02T20:59:34.298Z,20.00
2022-08-02T21:02:04.180Z,20.00
2022-08-02T21:04:31.015Z,19.90
2022-08-02T21:06:59.082Z,19.90
2022-08-02T21:09:52.838Z,19.80
2022-08-02T21:12:12.904Z,19.80
2022-08-02T21:14:39.984Z,19.70
2022-08-02T21:17:11.140Z,19.60
2022-08-02T21:19:44.134Z,19.60
2022-08-02T21:22:11.372Z,19.50
2022-08-02T21:24:39.033Z,19.40
2022-08-02T21:27:05.802Z,19.40
2022-08-02T21:29:52.594Z,19.40
2022-08-02T21:32:21.554Z,19.30
2022-08-02T21:34:49.292Z,19.30
2022-08-02T21:37:16.765Z,19.30
2022-08-02T21:39:43.744Z,19.30
2022-08-02T21:42:22.433Z,19.20
2022-08-02T21:44:51.025Z,19.20
2022-08-02T21:47:25.195Z,19.20
2022-08-02T21:50:13.211Z,19.20
2022-08-02T21:52:42.375Z,19.10
2022-08-02T21:55:21.312Z,19.00
2022-08-02T21:57:51.063Z,19.10
2022-08-02T22:00:17.916Z,19.00
2022-08-02T22:02:55.378Z,18.90
2022-08-02T22:05:22.161Z,18.90
2022-08-02T22:07:48.931Z,18.90
2022-08-02T22:10:17.345Z,18.80
2022-08-02T22:12:44.098Z,18.80
2022-08-02T22:15:11.980Z,18.80
2022-08-02T22:17:52.142Z,18.70
2022-08-02T22:20:21.097Z,18.70
2022-08-02T22:22:50.415Z,18.70
2022-08-02T22:25:27.318Z,18.70
2022-08-02T22:28:38.021Z,18.70
2022-08-02T22:30:54.865Z,18.60
2022-08-02T22:34:00.481Z,18.60
2022-08-02T22:36:35.663Z,18.60
2022-08-02T22:39:19.559Z,18.50
2022-08-02T22:42:06.268Z,18.50
2022-08-02T22:44:34.301Z,18.50
2022-08-02T22:47:07.255Z,18.50
2022-08-02T22:49:51.641Z,18.50
2022-08-02T22:52:20.875Z,18.40
2022-08-02T22:54:47.990Z,18.40
2022-08-02T22:57:14.702Z,18.40
2022-08-02T22:58:43.502Z,40.30
2022-08-02T22:58:56.590Z,20.10
2022-08-02T22:59:41.753Z,18.40
2022-08-02T23:02:10.016Z,18.40
2022-08-02T23:04:37.661Z,18.40
2022-08-02T23:07:05.068Z,18.40
2022-08-02T23:09:31.854Z,18.30
2022-08-02T23:11:58.539Z,18.30
2022-08-02T23:14:25.212Z,18.30
2022-08-02T23:17:10.399Z,18.30
2022-08-02T23:19:52.396Z,18.30
2022-08-02T23:22:29.724Z,18.30
2022-08-02T23:25:00.473Z,18.30
2022-08-02T23:27:27.719Z,18.30
2022-08-02T23:29:54.428Z,18.30
2022-08-02T23:32:22.989Z,18.30
2022-08-02T23:34:53.585Z,18.30
2022-08-02T23:37:20.317Z,18.30
2022-08-02T23:39:47.042Z,18.30
2022-08-02T23:42:13.847Z,18.30
2022-08-02T23:44:40.870Z,18.30
2022-08-02T23:47:07.585Z,18.20
2022-08-02T23:49:34.395Z,18.20
2022-08-02T23:52:11.444Z,18.20
2022-08-02T23:54:39.860Z,18.20
2022-08-02T23:57:20.278Z,18.20
2022-08-02T23:59:48.049Z,18.20
